Kuujjuarapik Airport
CYGW : now visible

Airfield :











YOU CAN JOIN US ON...

 
LOGIN :

Register | Disclaimer

   EN    FR    IT 

 









Legend :    VFR   Marginal VFR   IFR   Intensive IFR   Very Intensive IFR
Visi :
Ceiling :
>= 8 km
>= 3000ft
5 to 8 km
1000 to 3000 ft
1500m to 5 km
500 to 1000 ft
800 to 1500m
200 to 500 ft
< 800m
< 200 ft
Symbols :   Thunderstorms  Fog  Heavy snow  Heavy precipitations  Wind > 20 kt






- Airport Elevation : 34 ft
- IATA code : YGW


CYGW - Kuujjuarapik

CURRENT METAR :
  • 300000Z AUTO 36005KT 330V030 9SM SCT012 01/M02 A3022 RMK SLP235

EXPIRED METARs :
  • 292352Z AUTO 36007KT 330V030 9SM SCT014 01/M02 A3022 RMK SLP236
  • 292312Z AUTO 36007KT 330V030 9SM BKN016 02/M02 A3022 RMK SLP236
  • 292311Z AUTO 36007KT 330V030 9SM SCT016 02/M02 A3022 RMK SLP236
  • 292250Z AUTO 01007KT 330V040 9SM SCT016 02/M02 A3022 RMK SLP235
  • 292231Z AUTO 36007KT 340V060 9SM SCT018 03/M02 A3022 RMK SLP236
  • 292216Z AUTO 02005KT 320V050 9SM BKN018 03/M02 A3022 RMK SLP238
  • 292200Z AUTO 35007KT 320V030 9SM BKN018 03/M02 A3023 RMK SLP241
  • 292100Z AUTO 02008KT 320V040 9SM OVC016 02/M02 A3025 RMK SLP247
  • 292000Z AUTO 35010G17KT 9SM OVC020 03/M01 A3025 RMK SLP246

TAF TAF CYGW
Valid from the 30 at 00:00 until the 30 at 12:00 UTC


292343Z 3000/3012 36008KT P6SM SCT015
TEMPO 3000/3008 BKN015
FM300800 VRB03KT P6SM FEW020 BKN160 RMK FCST BASED ON AUTO OBS. NXT FCST BY 300600Z
CZUL FIR / North America



MET'MAP, your aeronautical weather chart ! - Copyright ORBIFLY December 2007 - Disclaimer

ORBIFLY MET'MAP TEAM :

Programming & Development : Alexandra Zaïnal
Original concept : Baudouin d'Aumeries
Technical & hardware support : Manuel Goepfert
Assistance : Marc-Olivier Méhu




SOURCES & CREDITS :

   NOAA       Earth
Advisory